Time;durP1;ratioP1;P1;durP2;ratioP2;P2;SDS_P1;SDS_P2;PMS_P1;PMS_P2;Temp;Humidity;BMP_temperature;BMP_pressure;BME280_temperature;BME280_humidity;BME280_pressure;Samples;Min_cycle;Max_cycle;Signal;HPM_P1;HPM_P2
2023/04/19 00:00:45;;;;;;;13.15;5.25;;;8.50;99.90;;;;;;5050252;28;20080;-60
2023/04/19 00:03:11;;;;;;;7.55;5.20;;;8.60;99.90;;;;;;5028812;28;20041;-60
2023/04/19 00:05:40;;;;;;;14.15;4.93;;;8.60;99.90;;;;;;5049926;28;20044;-60
2023/04/19 00:08:06;;;;;;;8.98;4.65;;;8.60;99.90;;;;;;5048442;28;20049;-60
2023/04/19 00:10:32;;;;;;;6.30;4.78;;;8.60;99.60;;;;;;5049306;28;20048;-60
2023/04/19 00:12:57;;;;;;;16.40;5.60;;;8.60;99.60;;;;;;5030748;28;20045;-60
2023/04/19 00:15:23;;;;;;;6.63;4.55;;;8.60;98.90;;;;;;5031187;28;20537;-60
2023/04/19 00:17:50;;;;;;;8.32;5.38;;;8.60;99.70;;;;;;5049070;28;20103;-60
2023/04/19 00:20:15;;;;;;;10.02;5.85;;;8.60;98.60;;;;;;5048162;28;20048;-60
2023/04/19 00:22:41;;;;;;;9.25;5.35;;;8.60;99.30;;;;;;5032202;28;20044;-74
2023/04/19 00:25:07;;;;;;;9.45;5.53;;;8.60;99.60;;;;;;5029910;28;20051;-60
2023/04/19 00:27:33;;;;;;;10.52;5.65;;;8.50;99.30;;;;;;5049371;28;20084;-60
2023/04/19 00:29:59;;;;;;;8.50;5.50;;;8.50;98.70;;;;;;5047316;28;20080;-60
2023/04/19 00:32:25;;;;;;;7.30;5.07;;;8.50;98.50;;;;;;5030933;28;20384;-60
2023/04/19 00:34:51;;;;;;;9.15;5.82;;;8.40;98.80;;;;;;5048330;28;20056;-61
2023/04/19 00:37:17;;;;;;;10.57;5.65;;;8.40;99.00;;;;;;5030210;28;20483;-60
2023/04/19 00:39:42;;;;;;;8.63;5.93;;;8.40;98.70;;;;;;5047954;28;20142;-60
2023/04/19 00:42:08;;;;;;;7.63;5.72;;;8.40;97.90;;;;;;5029547;28;20076;-61
2023/04/19 00:44:34;;;;;;;9.82;6.45;;;8.40;98.10;;;;;;5048842;28;20317;-61
2023/04/19 00:47:00;;;;;;;8.20;5.80;;;8.30;97.40;;;;;;5047675;28;20036;-60
2023/04/19 00:49:26;;;;;;;11.73;5.90;;;8.30;98.00;;;;;;5030820;28;20128;-61
2023/04/19 00:51:53;;;;;;;10.73;5.95;;;8.30;97.90;;;;;;5029455;28;20079;-61
2023/04/19 00:54:19;;;;;;;8.98;5.90;;;8.20;97.10;;;;;;5030422;28;20048;-61
2023/04/19 00:56:46;;;;;;;10.13;5.93;;;8.20;97.20;;;;;;5031051;28;20081;-61
2023/04/19 00:59:14;;;;;;;10.00;5.70;;;8.20;97.40;;;;;;5047527;28;20505;-61
2023/04/19 01:01:40;;;;;;;6.95;5.43;;;8.10;98.10;;;;;;5030751;28;20091;-60
2023/04/19 01:04:06;;;;;;;12.70;5.90;;;8.10;97.40;;;;;;5029109;28;20106;-61
2023/04/19 01:06:34;;;;;;;10.38;5.93;;;8.00;96.20;;;;;;5048051;28;20057;-61
2023/04/19 01:09:00;;;;;;;10.80;5.65;;;8.00;95.10;;;;;;5045611;28;20053;-61
2023/04/19 01:11:27;;;;;;;14.38;6.45;;;8.00;95.00;;;;;;5047129;28;20049;-61
2023/04/19 01:13:54;;;;;;;8.68;4.90;;;8.00;95.50;;;;;;5028541;28;20373;-61
2023/04/19 01:16:20;;;;;;;8.93;5.50;;;7.90;93.30;;;;;;5046331;28;20057;-61
2023/04/19 01:18:46;;;;;;;8.48;5.60;;;7.90;93.00;;;;;;5046820;28;20055;-60
2023/04/19 01:21:11;;;;;;;10.43;5.63;;;7.90;92.80;;;;;;5045900;28;20450;-61
2023/04/19 01:23:40;;;;;;;5.43;4.82;;;7.90;92.30;;;;;;5046641;28;20123;-61
2023/04/19 01:26:06;;;;;;;10.02;5.68;;;7.80;92.20;;;;;;5045769;28;20044;-61
2023/04/19 01:28:32;;;;;;;11.63;5.32;;;7.80;91.80;;;;;;5046857;28;20045;-61
2023/04/19 01:30:58;;;;;;;6.22;5.28;;;7.70;92.10;;;;;;5045709;28;20053;-61
2023/04/19 01:33:24;;;;;;;6.82;4.97;;;7.70;91.70;;;;;;5046355;28;20403;-61
2023/04/19 01:35:50;;;;;;;6.03;4.75;;;7.60;91.10;;;;;;5028260;28;20048;-61
2023/04/19 01:38:16;;;;;;;6.93;4.38;;;7.60;86.40;;;;;;5045650;28;20052;-61
2023/04/19 01:40:42;;;;;;;11.55;5.05;;;7.60;80.50;;;;;;5046032;28;20170;-61
2023/04/19 01:43:10;;;;;;;8.80;4.65;;;7.60;83.90;;;;;;5045788;28;20060;-61
2023/04/19 01:45:36;;;;;;;12.05;4.47;;;7.60;81.60;;;;;;5028559;28;20677;-61
2023/04/19 01:48:03;;;;;;;13.52;4.70;;;7.50;78.20;;;;;;5045548;28;20072;-61
2023/04/19 01:50:29;;;;;;;8.10;4.60;;;7.50;77.50;;;;;;5046106;28;20049;-61
2023/04/19 01:52:55;;;;;;;8.38;4.47;;;7.50;78.10;;;;;;5047030;28;20052;-61
2023/04/19 01:55:21;;;;;;;11.35;5.00;;;7.40;75.40;;;;;;5045910;28;20049;-61
2023/04/19 01:57:47;;;;;;;11.85;4.20;;;7.40;76.20;;;;;;5045910;28;20467;-60
2023/04/19 02:00:14;;;;;;;7.80;4.38;;;7.40;76.70;;;;;;5030932;28;20438;-60
2023/04/19 02:02:40;;;;;;;7.35;4.43;;;7.30;77.00;;;;;;5045588;28;20159;-61
2023/04/19 02:05:06;;;;;;;5.03;4.05;;;7.30;76.40;;;;;;5044793;28;20056;-60
2023/04/19 02:07:33;;;;;;;11.98;4.63;;;7.30;73.50;;;;;;5045910;28;20055;-60
2023/04/19 02:09:59;;;;;;;9.82;4.15;;;7.20;73.60;;;;;;5045005;28;20048;-60
2023/04/19 02:12:29;;;;;;;7.25;4.25;;;7.30;73.40;;;;;;5028077;28;20105;-60
2023/04/19 02:14:56;;;;;;;7.10;4.05;;;7.20;74.30;;;;;;5027568;28;20418;-60
2023/04/19 02:17:25;;;;;;;7.90;4.30;;;7.20;71.90;;;;;;5045598;28;20041;-60
2023/04/19 02:19:51;;;;;;;9.25;4.55;;;7.20;71.60;;;;;;5046019;28;20045;-60
2023/04/19 02:22:18;;;;;;;7.32;4.40;;;7.20;73.60;;;;;;5027353;28;20045;-60
2023/04/19 02:24:44;;;;;;;7.70;4.40;;;7.20;73.50;;;;;;5026933;28;20044;-60
2023/04/19 02:27:10;;;;;;;8.55;4.75;;;7.20;74.30;;;;;;5044742;28;20437;-60
2023/04/19 02:29:36;;;;;;;7.45;5.00;;;7.10;72.20;;;;;;5045656;28;20045;-60
2023/04/19 02:32:04;;;;;;;7.93;4.80;;;7.10;76.30;;;;;;5010966;28;20052;-60
2023/04/19 02:34:33;;;;;;;5.60;4.03;;;7.10;74.10;;;;;;5044891;28;20033;-60
2023/04/19 02:36:59;;;;;;;15.70;4.80;;;7.10;74.50;;;;;;5045792;28;20140;-60
2023/04/19 02:39:25;;;;;;;6.88;4.63;;;7.00;73.60;;;;;;5045070;28;20049;-60
2023/04/19 02:41:51;;;;;;;5.85;4.65;;;7.00;72.60;;;;;;5045205;28;20041;-60
2023/04/19 02:44:17;;;;;;;10.50;3.97;;;7.00;74.10;;;;;;5044487;28;20095;-61
2023/04/19 02:46:52;;;;;;;7.50;4.40;;;6.90;75.20;;;;;;5044925;28;20052;-60
2023/04/19 02:49:19;;;;;;;8.13;4.78;;;7.00;72.30;;;;;;5044920;28;20174;-60
2023/04/19 02:51:44;;;;;;;9.15;4.03;;;6.90;72.40;;;;;;5044500;28;20041;-60
2023/04/19 02:54:11;;;;;;;8.13;4.28;;;6.90;70.10;;;;;;5027518;28;20041;-60
2023/04/19 02:56:37;;;;;;;7.22;3.72;;;6.80;70.90;;;;;;5044566;28;20376;-60
2023/04/19 02:59:03;;;;;;;6.28;3.58;;;6.90;68.00;;;;;;5045678;28;20029;-60
2023/04/19 03:01:30;;;;;;;7.47;3.50;;;6.90;67.20;;;;;;5044359;28;20057;-60
2023/04/19 03:03:55;;;;;;;3.67;3.30;;;6.90;67.50;;;;;;5013475;28;20040;-63
2023/04/19 03:06:21;;;;;;;5.00;3.20;;;6.90;60.60;;;;;;5046763;28;20906;-60
2023/04/19 03:08:47;;;;;;;8.00;3.38;;;6.90;62.00;;;;;;5047849;28;20491;-60
2023/04/19 03:11:15;;;;;;;8.13;4.20;;;6.90;63.30;;;;;;5048332;28;20045;-60
2023/04/19 03:13:41;;;;;;;5.53;3.60;;;6.80;63.20;;;;;;5048260;28;20053;-60
2023/04/19 03:16:07;;;;;;;4.72;3.40;;;6.80;62.00;;;;;;5048344;28;20636;-60
2023/04/19 03:18:34;;;;;;;5.65;3.55;;;6.80;59.60;;;;;;5046900;28;20041;-61
2023/04/19 03:21:00;;;;;;;7.88;3.65;;;6.80;62.10;;;;;;5049223;28;20049;-60
2023/04/19 03:23:26;;;;;;;9.45;3.90;;;6.70;60.90;;;;;;5048172;28;20158;-61
2023/04/19 03:25:52;;;;;;;5.03;3.90;;;6.70;63.20;;;;;;5048611;28;20048;-60
2023/04/19 03:28:18;;;;;;;5.75;4.28;;;6.70;67.80;;;;;;5048673;28;20040;-61
2023/04/19 03:30:43;;;;;;;7.38;4.25;;;6.60;69.00;;;;;;5047968;28;20052;-60
2023/04/19 03:33:09;;;;;;;8.35;4.63;;;6.60;72.60;;;;;;5030634;28;20180;-61
2023/04/19 03:35:35;;;;;;;7.00;4.40;;;6.50;73.50;;;;;;5048408;28;20041;-61
2023/04/19 03:38:00;;;;;;;10.70;4.18;;;6.40;73.40;;;;;;5030545;28;20134;-61
2023/04/19 03:40:26;;;;;;;14.65;4.00;;;6.40;72.40;;;;;;5048006;28;20052;-61
2023/04/19 03:42:52;;;;;;;6.90;4.05;;;6.30;70.90;;;;;;5031082;28;20048;-61
2023/04/19 03:45:18;;;;;;;5.75;3.70;;;6.40;67.50;;;;;;5047341;28;20049;-61
2023/04/19 03:47:44;;;;;;;9.75;3.65;;;6.40;66.90;;;;;;5030125;28;20045;-61
2023/04/19 03:50:10;;;;;;;11.35;4.18;;;6.40;65.60;;;;;;5048441;28;20455;-61
2023/04/19 03:52:36;;;;;;;8.32;3.53;;;6.40;65.30;;;;;;5047903;28;20048;-61
2023/04/19 03:55:02;;;;;;;5.43;3.45;;;6.40;64.90;;;;;;5030325;28;20434;-61
2023/04/19 03:57:28;;;;;;;6.93;3.58;;;6.40;65.50;;;;;;5046890;28;20044;-61
2023/04/19 03:59:54;;;;;;;5.28;3.00;;;6.40;64.70;;;;;;5047910;28;20458;-61
2023/04/19 04:02:19;;;;;;;7.68;3.72;;;6.30;65.20;;;;;;5029044;28;20061;-61
2023/04/19 04:04:45;;;;;;;8.27;3.30;;;6.30;65.30;;;;;;5047550;28;20048;-61
2023/04/19 04:07:11;;;;;;;5.72;3.33;;;6.30;64.60;;;;;;5041049;28;20127;-61
2023/04/19 04:09:36;;;;;;;7.38;3.55;;;6.40;66.90;;;;;;5047245;28;20047;-61
2023/04/19 04:12:02;;;;;;;14.50;3.15;;;6.30;66.90;;;;;;5047124;28;20049;-61
2023/04/19 04:14:28;;;;;;;8.38;3.20;;;6.20;65.70;;;;;;5028773;28;20041;-61
2023/04/19 04:16:53;;;;;;;4.70;2.78;;;6.20;66.60;;;;;;5042086;28;20460;-61
2023/04/19 04:19:20;;;;;;;6.93;3.30;;;6.20;66.10;;;;;;5041977;28;20049;-61
2023/04/19 04:21:47;;;;;;;5.25;3.10;;;6.20;66.10;;;;;;5047822;28;20044;-61
2023/04/19 04:24:13;;;;;;;5.40;3.05;;;6.20;67.10;;;;;;5047251;28;20044;-61
2023/04/19 04:26:39;;;;;;;6.97;3.28;;;6.20;67.50;;;;;;5047819;28;20045;-61
2023/04/19 04:29:05;;;;;;;5.53;2.80;;;6.20;68.00;;;;;;5047156;28;20452;-61
2023/04/19 04:31:31;;;;;;;4.47;3.35;;;6.10;67.90;;;;;;5043067;28;20037;-61
2023/04/19 04:33:57;;;;;;;5.78;3.67;;;6.10;69.00;;;;;;5046146;28;20040;-61
2023/04/19 04:36:23;;;;;;;7.22;3.55;;;6.10;68.50;;;;;;5041615;28;20432;-61
2023/04/19 04:38:48;;;;;;;3.92;2.75;;;6.10;69.50;;;;;;5047689;28;20052;-61
2023/04/19 04:41:15;;;;;;;5.40;2.95;;;6.10;69.90;;;;;;5046760;28;20768;-61
2023/04/19 04:43:41;;;;;;;3.83;2.70;;;6.10;70.70;;;;;;5043727;28;20046;-61
2023/04/19 04:46:07;;;;;;;4.47;2.80;;;6.10;68.10;;;;;;5042357;28;20101;-61
2023/04/19 04:48:33;;;;;;;7.40;2.80;;;6.20;68.90;;;;;;5047374;28;20048;-61
2023/04/19 04:50:59;;;;;;;3.03;2.80;;;6.20;66.90;;;;;;5032740;28;20053;-61
2023/04/19 04:53:26;;;;;;;6.57;2.88;;;6.20;65.60;;;;;;5046614;28;20110;-61
2023/04/19 04:55:53;;;;;;;7.75;2.47;;;6.20;65.80;;;;;;5047117;28;20036;-61
2023/04/19 04:58:18;;;;;;;7.00;3.15;;;6.30;63.30;;;;;;5046457;28;20052;-61
2023/04/19 05:00:45;;;;;;;4.25;2.67;;;6.30;64.10;;;;;;5047722;28;20037;-61
2023/04/19 05:03:11;;;;;;;6.82;2.55;;;6.30;64.70;;;;;;5028228;28;20060;-61
2023/04/19 05:05:37;;;;;;;7.82;3.10;;;6.30;63.20;;;;;;5046789;28;20045;-61
2023/04/19 05:08:03;;;;;;;5.80;3.10;;;6.40;64.20;;;;;;5041949;28;20445;-61
2023/04/19 05:10:29;;;;;;;9.35;3.00;;;6.40;62.80;;;;;;5045437;28;20106;-61
2023/04/19 05:12:54;;;;;;;10.82;2.90;;;6.40;61.30;;;;;;5046788;28;20150;-61
2023/04/19 05:15:20;;;;;;;9.05;3.10;;;6.30;59.00;;;;;;5028140;28;20152;-61
2023/04/19 05:17:46;;;;;;;5.75;3.25;;;6.30;59.20;;;;;;5047113;28;20044;-61
2023/04/19 05:20:12;;;;;;;6.38;3.00;;;6.30;61.50;;;;;;5045475;28;20048;-61
2023/04/19 05:22:38;;;;;;;5.32;2.72;;;6.30;65.30;;;;;;5047206;28;20116;-61
2023/04/19 05:25:05;;;;;;;4.93;2.80;;;6.30;64.50;;;;;;5027032;28;20119;-61
2023/04/19 05:27:31;;;;;;;4.05;2.58;;;6.30;64.00;;;;;;5045813;28;20551;-61
2023/04/19 05:29:56;;;;;;;3.20;2.25;;;6.40;61.10;;;;;;5045933;28;20049;-61
2023/04/19 05:32:22;;;;;;;5.80;2.97;;;6.40;63.30;;;;;;5046016;28;20087;-61
2023/04/19 05:34:48;;;;;;;3.92;2.97;;;6.50;56.50;;;;;;5046511;28;20399;-61
2023/04/19 05:37:14;;;;;;;10.55;2.22;;;6.50;60.90;;;;;;5045030;28;20147;-61
2023/04/19 05:39:39;;;;;;;5.50;2.70;;;6.70;56.60;;;;;;5029053;28;20547;-61
2023/04/19 05:42:05;;;;;;;6.68;2.60;;;6.80;59.60;;;;;;5027424;28;20051;-60
2023/04/19 05:44:31;;;;;;;3.28;2.30;;;6.90;57.70;;;;;;5046387;28;20131;-61
2023/04/19 05:46:57;;;;;;;5.43;2.78;;;7.00;55.00;;;;;;5027541;28;20080;-61
2023/04/19 05:49:23;;;;;;;3.97;2.72;;;7.10;50.50;;;;;;5045824;28;20087;-61
2023/04/19 05:51:48;;;;;;;3.45;2.58;;;7.20;49.90;;;;;;5046188;28;20055;-61
2023/04/19 05:54:15;;;;;;;5.15;2.38;;;7.20;49.10;;;;;;5045248;28;20407;-61
2023/04/19 05:56:41;;;;;;;6.13;2.70;;;7.20;51.20;;;;;;5045070;28;20490;-61
2023/04/19 05:59:10;;;;;;;4.55;2.45;;;7.20;47.10;;;;;;5044631;28;20037;-61
2023/04/19 06:01:36;;;;;;;4.45;2.38;;;7.20;47.80;;;;;;5046222;28;20131;-61
2023/04/19 06:04:01;;;;;;;5.15;2.10;;;7.20;47.90;;;;;;5044398;28;20141;-61
2023/04/19 06:06:27;;;;;;;8.30;2.55;;;7.30;48.10;;;;;;5033631;28;20037;-61
2023/04/19 06:08:53;;;;;;;3.13;2.50;;;7.60;38.40;;;;;;5043163;28;20054;-60
2023/04/19 06:11:19;;;;;;;4.75;2.42;;;7.70;42.70;;;;;;5040395;28;20590;-61
2023/04/19 06:13:45;;;;;;;8.77;2.40;;;7.70;32.50;;;;;;5046425;28;20055;-61
2023/04/19 06:16:10;;;;;;;5.90;2.22;;;7.70;35.10;;;;;;5026742;28;20123;-61
2023/04/19 06:18:36;;;;;;;5.00;2.33;;;7.80;29.70;;;;;;5046885;28;20159;-60
2023/04/19 06:21:02;;;;;;;2.67;2.15;;;7.90;30.80;;;;;;5044889;28;20123;-61
2023/04/19 06:23:27;;;;;;;2.42;2.22;;;8.20;29.10;;;;;;5046111;28;20049;-60
2023/04/19 06:25:53;;;;;;;4.20;2.22;;;8.40;19.60;;;;;;5044777;28;20128;-61
2023/04/19 06:28:19;;;;;;;2.20;2.00;;;8.90;15.80;;;;;;5045040;28;20041;-61
2023/04/19 06:30:45;;;;;;;4.10;1.88;;;9.20;13.10;;;;;;5045944;28;20049;-61
2023/04/19 06:33:11;;;;;;;5.15;2.00;;;9.30;10.00;;;;;;5036282;28;20033;-61
2023/04/19 06:35:37;;;;;;;6.30;2.25;;;9.20;8.90;;;;;;5037544;28;20530;-61
2023/04/19 06:38:02;;;;;;;2.45;1.88;;;8.90;11.40;;;;;;5025733;28;20051;-61
2023/04/19 06:40:28;;;;;;;2.83;1.95;;;8.80;14.80;;;;;;5012778;28;20057;-61
2023/04/19 06:42:55;;;;;;;6.35;1.58;;;8.70;19.10;;;;;;5047952;28;20454;-61
2023/04/19 06:45:20;;;;;;;3.28;1.80;;;8.70;21.40;;;;;;5041632;28;20044;-61
2023/04/19 06:47:46;;;;;;;3.63;1.20;;;8.60;21.70;;;;;;5038183;28;20128;-61
2023/04/19 06:50:12;;;;;;;2.03;1.30;;;8.60;16.40;;;;;;5043945;28;20497;-61
2023/04/19 06:52:38;;;;;;;7.88;1.65;;;8.60;20.30;;;;;;5049197;28;20084;-61
2023/04/19 06:55:08;;;;;;;5.13;1.48;;;8.60;17.90;;;;;;5028656;28;20399;-61
2023/04/19 06:57:34;;;;;;;1.45;1.35;;;8.60;16.00;;;;;;5032497;28;20048;-61
2023/04/19 06:59:59;;;;;;;4.15;1.73;;;8.70;20.40;;;;;;5030185;28;20059;-61
2023/04/19 07:02:25;;;;;;;4.35;1.35;;;8.90;19.90;;;;;;5041675;28;20042;-61
2023/04/19 07:04:51;;;;;;;2.28;1.30;;;9.10;21.50;;;;;;5045126;28;20052;-61
2023/04/19 07:07:17;;;;;;;2.88;1.00;;;9.40;20.10;;;;;;5048172;28;20060;-61
2023/04/19 07:09:42;;;;;;;4.50;1.23;;;9.60;15.90;;;;;;5031497;28;20032;-60
2023/04/19 07:12:08;;;;;;;5.20;1.35;;;9.70;10.30;;;;;;5024956;28;20068;-61
2023/04/19 07:14:34;;;;;;;1.40;1.30;;;9.80;9.70;;;;;;5047308;28;20045;-61
2023/04/19 07:16:59;;;;;;;6.55;1.27;;;10.00;11.60;;;;;;5030032;28;20545;-60
2023/04/19 07:19:27;;;;;;;4.35;1.33;;;10.20;11.90;;;;;;5049324;28;20037;-61
2023/04/19 07:21:53;;;;;;;2.22;1.08;;;10.30;12.00;;;;;;5014084;28;20128;-61
2023/04/19 07:24:19;;;;;;;4.57;1.10;;;10.40;7.40;;;;;;5048609;28;20082;-61
2023/04/19 07:26:45;;;;;;;2.95;1.17;;;10.50;10.00;;;;;;5048812;28;20071;-61
2023/04/19 07:29:11;;;;;;;5.72;1.33;;;10.70;8.70;;;;;;5046501;28;20076;-61
2023/04/19 07:31:36;;;;;;;3.28;1.40;;;10.90;8.70;;;;;;5038698;28;20506;-61
2023/04/19 07:34:02;;;;;;;4.10;1.38;;;11.00;7.20;;;;;;5029718;28;20049;-61
2023/04/19 07:36:28;;;;;;;1.80;1.10;;;11.00;8.90;;;;;;5049046;28;20076;-61
2023/04/19 07:38:54;;;;;;;2.05;0.95;;;11.10;7.50;;;;;;5045830;28;20511;-60
2023/04/19 07:41:20;;;;;;;3.30;1.00;;;11.30;5.10;;;;;;5048462;28;20056;-61
2023/04/19 07:43:45;;;;;;;3.72;1.13;;;11.40;5.50;;;;;;5045365;28;20158;-60
2023/04/19 07:46:12;;;;;;;3.08;1.00;;;11.60;6.80;;;;;;5046972;28;20492;-60
2023/04/19 07:48:38;;;;;;;2.75;1.63;;;11.70;1.00;;;;;;5047161;28;20555;-60
2023/04/19 07:51:15;;;;;;;3.38;1.55;;;11.60;4.80;;;;;;5040870;28;20053;-61
2023/04/19 07:53:42;;;;;;;1.92;1.00;;;11.70;6.10;;;;;;5030553;28;20052;-61
2023/04/19 07:56:10;;;;;;;3.05;1.20;;;11.70;7.20;;;;;;5032537;28;20106;-61
2023/04/19 07:58:36;;;;;;;7.22;1.40;;;11.80;2.30;;;;;;5040656;28;20053;-60
2023/04/19 08:01:02;;;;;;;1.80;0.90;;;11.90;1.90;;;;;;5033080;28;20415;-60
2023/04/19 08:03:29;;;;;;;1.33;1.13;;;11.80;1.00;;;;;;5045321;28;20045;-60
2023/04/19 08:05:55;;;;;;;1.27;1.15;;;11.70;1.00;;;;;;5029975;28;20059;-60
2023/04/19 08:08:21;;;;;;;4.53;1.05;;;11.70;1.20;;;;;;5044085;28;20048;-60
2023/04/19 08:10:46;;;;;;;1.77;1.20;;;11.70;1.00;;;;;;5042889;28;20049;-61
2023/04/19 08:13:12;;;;;;;1.98;1.20;;;11.80;1.70;;;;;;5038001;28;20500;-61
2023/04/19 08:15:38;;;;;;;1.58;1.20;;;12.00;1.00;;;;;;5045354;28;20049;-61
2023/04/19 08:18:04;;;;;;;4.43;1.20;;;12.20;1.00;;;;;;5043143;28;20048;-60
2023/04/19 08:20:31;;;;;;;4.00;1.00;;;12.30;1.00;;;;;;5046720;28;20424;-61
2023/04/19 08:22:57;;;;;;;2.08;1.35;;;12.40;1.00;;;;;;5008813;28;20037;-61
2023/04/19 08:25:27;;;;;;;2.55;1.00;;;12.50;1.00;;;;;;5040612;28;20433;-61
2023/04/19 08:27:56;;;;;;;1.27;0.98;;;12.70;1.00;;;;;;5046331;28;20045;-60
2023/04/19 08:30:22;;;;;;;1.17;0.90;;;12.80;1.00;;;;;;5045317;28;20588;-61
2023/04/19 08:32:47;;;;;;;5.70;0.88;;;12.90;1.00;;;;;;5044728;28;20055;-61
2023/04/19 08:35:13;;;;;;;5.75;1.00;;;13.00;1.00;;;;;;5039813;28;20502;-61
2023/04/19 08:37:39;;;;;;;1.63;0.98;;;13.00;1.00;;;;;;5047227;28;20469;-61
2023/04/19 08:40:05;;;;;;;2.97;1.00;;;12.90;1.00;;;;;;5045880;28;20044;-61
2023/04/19 08:42:32;;;;;;;0.90;0.90;;;12.80;1.00;;;;;;5044910;28;20449;-60
2023/04/19 08:45:04;;;;;;;1.15;1.10;;;12.80;1.00;;;;;;5041293;28;20102;-62
2023/04/19 08:47:32;;;;;;;2.83;1.35;;;12.80;1.00;;;;;;5028368;28;20076;-60
2023/04/19 08:50:00;;;;;;;1.42;0.95;;;12.90;1.00;;;;;;5042956;28;20049;-60
2023/04/19 08:52:27;;;;;;;1.45;1.02;;;13.00;1.00;;;;;;5039635;28;20052;-61
2023/04/19 08:54:56;;;;;;;2.15;1.13;;;13.10;1.00;;;;;;5011305;28;20072;-61
2023/04/19 08:57:22;;;;;;;4.68;1.42;;;13.20;1.00;;;;;;5040203;28;20059;-60
2023/04/19 08:59:54;;;;;;;6.00;1.15;;;13.10;1.00;;;;;;5025351;28;20037;-60
2023/04/19 09:02:21;;;;;;;0.90;0.75;;;13.00;1.00;;;;;;5024376;28;20052;-61
2023/04/19 09:04:47;;;;;;;4.32;0.82;;;13.10;1.00;;;;;;5037555;28;20109;-60
2023/04/19 09:07:26;;;;;;;2.97;1.00;;;13.10;1.00;;;;;;5046204;28;20133;-61
2023/04/19 09:10:10;;;;;;;2.63;1.27;;;13.10;1.00;;;;;;5028591;28;20170;-61
2023/04/19 09:12:37;;;;;;;1.10;1.00;;;13.20;1.00;;;;;;5011522;28;20045;-60
2023/04/19 09:15:07;;;;;;;8.13;1.27;;;13.30;1.00;;;;;;5046369;28;20052;-82
2023/04/19 09:17:35;;;;;;;3.17;1.20;;;13.40;1.00;;;;;;5026790;28;20060;-60
2023/04/19 09:20:02;;;;;;;2.08;0.90;;;13.30;1.00;;;;;;5043698;28;20044;-60
2023/04/19 09:22:28;;;;;;;3.20;1.08;;;13.30;1.00;;;;;;5045452;28;20049;-60
2023/04/19 09:24:54;;;;;;;4.97;0.88;;;13.30;1.00;;;;;;5035393;28;20055;-60
2023/04/19 09:27:32;;;;;;;2.75;0.80;;;13.40;1.00;;;;;;5008463;28;20055;-61
2023/04/19 09:30:00;;;;;;;1.02;0.85;;;13.40;1.00;;;;;;5024386;28;20049;-60
2023/04/19 09:32:27;;;;;;;5.53;1.10;;;13.40;1.00;;;;;;5039181;28;20120;-60
2023/04/19 09:34:58;;;;;;;2.58;1.00;;;13.30;1.00;;;;;;5008977;28;20065;-61
2023/04/19 09:37:25;;;;;;;1.75;0.88;;;13.30;1.00;;;;;;5038861;28;20032;-61
2023/04/19 09:39:52;;;;;;;1.60;0.85;;;13.30;1.00;;;;;;5028969;28;20044;-60
2023/04/19 09:42:19;;;;;;;1.30;0.90;;;13.30;1.00;;;;;;5036741;28;20048;-60
2023/04/19 09:44:57;;;;;;;3.67;0.90;;;13.40;1.00;;;;;;5043895;28;20056;-60
2023/04/19 09:47:28;;;;;;;2.85;0.70;;;13.40;1.00;;;;;;5023456;28;20037;-60
2023/04/19 09:50:10;;;;;;;4.43;1.17;;;13.50;1.00;;;;;;5030497;28;20218;-61
2023/04/19 09:52:36;;;;;;;1.65;0.85;;;13.60;1.00;;;;;;5044128;28;20043;-61
2023/04/19 09:55:04;;;;;;;5.35;0.90;;;13.60;1.00;;;;;;5028413;28;20517;-61
2023/04/19 09:57:31;;;;;;;5.20;1.25;;;13.60;1.00;;;;;;5044293;28;20069;-60
2023/04/19 09:59:59;;;;;;;2.13;0.80;;;13.60;1.00;;;;;;5023907;28;20128;-62
2023/04/19 10:02:30;;;;;;;2.08;0.73;;;13.70;1.00;;;;;;5016204;28;20116;-61
2023/04/19 10:04:57;;;;;;;3.75;0.77;;;13.70;1.00;;;;;;5043163;28;20068;-61
2023/04/19 10:07:23;;;;;;;1.08;0.75;;;13.50;1.00;;;;;;4994077;28;20128;-61
2023/04/19 10:09:50;;;;;;;3.65;0.65;;;13.50;1.00;;;;;;5040616;28;20136;-62
2023/04/19 10:12:16;;;;;;;4.18;0.98;;;13.70;1.00;;;;;;5034096;28;20439;-61
2023/04/19 10:14:42;;;;;;;2.38;1.08;;;13.90;1.00;;;;;;5023106;28;20041;-60
2023/04/19 10:17:08;;;;;;;4.00;1.05;;;13.80;1.00;;;;;;5032407;28;20037;-61
2023/04/19 10:19:36;;;;;;;1.40;0.80;;;13.60;1.00;;;;;;5041773;28;20050;-61
2023/04/19 10:22:05;;;;;;;5.10;0.75;;;13.80;1.00;;;;;;5043451;28;20052;-61
2023/04/19 10:24:32;;;;;;;0.80;0.75;;;13.80;1.00;;;;;;5040064;28;20059;-61
2023/04/19 10:27:07;;;;;;;1.45;0.50;;;13.70;1.00;;;;;;5043488;28;20041;-61
2023/04/19 10:29:54;;;;;;;6.88;0.88;;;13.80;1.00;;;;;;5024677;28;20051;-61
2023/04/19 10:32:47;;;;;;;0.47;0.47;;;13.80;1.00;;;;;;5040262;28;20063;-61
2023/04/19 10:35:19;;;;;;;1.00;0.80;;;13.70;1.00;;;;;;5039437;28;20434;-61
2023/04/19 10:38:13;;;;;;;5.50;0.93;;;13.80;1.00;;;;;;5010374;28;20083;-61
2023/04/19 10:40:53;;;;;;;3.45;0.90;;;14.00;1.00;;;;;;5016936;28;20048;-61
2023/04/19 10:43:28;;;;;;;1.50;0.90;;;14.00;1.00;;;;;;5043497;28;20049;-61
2023/04/19 10:46:00;;;;;;;4.13;0.80;;;14.00;1.00;;;;;;5040870;28;20068;-61
2023/04/19 10:48:29;;;;;;;2.63;0.88;;;14.00;1.00;;;;;;5039302;28;20108;-61
2023/04/19 10:51:03;;;;;;;1.27;0.93;;;13.90;1.00;;;;;;5043440;28;20052;-61
2023/04/19 10:53:50;;;;;;;0.90;0.70;;;13.80;1.00;;;;;;5040463;28;20045;-61
2023/04/19 10:56:31;;;;;;;7.28;0.95;;;13.70;1.00;;;;;;5025040;28;20044;-61
2023/04/19 10:59:00;;;;;;;8.95;1.00;;;13.70;1.00;;;;;;5037834;28;20084;-61
2023/04/19 11:01:45;;;;;;;5.55;1.15;;;13.80;1.00;;;;;;5035266;28;20096;-61
2023/04/19 11:04:35;;;;;;;1.70;0.70;;;13.80;1.00;;;;;;5042933;28;20044;-61
2023/04/19 11:07:03;;;;;;;0.90;0.90;;;13.90;1.00;;;;;;5005930;28;20054;-61
2023/04/19 11:09:34;;;;;;;0.95;0.93;;;13.90;1.00;;;;;;5018326;28;20038;-61
2023/04/19 11:12:07;;;;;;;5.40;1.30;;;14.00;1.00;;;;;;5017843;28;20582;-61
2023/04/19 11:14:40;;;;;;;3.22;1.73;;;14.00;1.00;;;;;;5016799;28;20045;-61
2023/04/19 11:17:19;;;;;;;7.30;1.08;;;13.90;1.00;;;;;;5025119;28;20048;-60
2023/04/19 11:20:07;;;;;;;2.05;1.08;;;13.80;1.00;;;;;;5012090;28;20365;-61
2023/04/19 11:22:38;;;;;;;3.83;1.50;;;13.90;1.00;;;;;;5023130;28;20045;-61
2023/04/19 11:25:18;;;;;;;3.83;1.50;;;13.90;1.00;;;;;;5013863;28;20128;-60
2023/04/19 11:27:56;;;;;;;9.93;1.52;;;13.90;1.00;;;;;;5016864;28;20538;-61
2023/04/19 11:30:29;;;;;;;1.90;1.30;;;13.90;1.00;;;;;;5029155;28;20042;-60
2023/04/19 11:32:56;;;;;;;2.33;1.27;;;13.90;1.00;;;;;;5025217;28;20060;-61
2023/04/19 11:35:23;;;;;;;5.65;1.20;;;13.80;1.00;;;;;;5028059;28;20048;-61
2023/04/19 11:37:50;;;;;;;4.25;1.27;;;13.80;1.00;;;;;;5025622;28;20558;-61
2023/04/19 11:40:17;;;;;;;7.53;1.20;;;13.80;1.00;;;;;;5014329;28;20041;-61
2023/04/19 11:42:43;;;;;;;5.80;1.42;;;13.80;1.00;;;;;;5020642;28;20052;-60
2023/04/19 11:45:10;;;;;;;4.00;1.30;;;13.70;1.00;;;;;;5016293;28;20113;-60
2023/04/19 11:47:49;;;;;;;2.25;1.50;;;13.80;1.00;;;;;;5025580;28;20368;-61
2023/04/19 11:50:38;;;;;;;3.58;1.23;;;13.60;1.00;;;;;;5028534;28;20049;-61
2023/04/19 11:53:39;;;;;;;7.97;1.10;;;13.70;1.00;;;;;;5023996;28;20116;-61
2023/04/19 11:56:07;;;;;;;4.72;1.40;;;13.70;1.00;;;;;;4983688;28;20065;-60
2023/04/19 11:58:40;;;;;;;3.20;1.08;;;13.80;1.00;;;;;;5003106;28;20042;-60
2023/04/19 12:01:09;;;;;;;2.20;1.30;;;13.70;1.00;;;;;;5027579;28;20554;-60
2023/04/19 12:03:39;;;;;;;4.47;1.50;;;13.70;1.00;;;;;;5026708;28;20042;-60
2023/04/19 12:06:09;;;;;;;1.27;1.17;;;13.60;1.00;;;;;;5023943;28;20124;-61
2023/04/19 12:08:42;;;;;;;3.25;1.10;;;13.50;1.00;;;;;;5047514;28;20088;-60
2023/04/19 12:11:09;;;;;;;4.53;1.33;;;13.50;1.00;;;;;;5047022;28;20073;-61
2023/04/19 12:13:35;;;;;;;5.18;1.38;;;13.30;1.00;;;;;;5030747;28;20074;-61
2023/04/19 12:16:02;;;;;;;1.40;1.25;;;13.10;1.00;;;;;;5047971;28;20041;-61
2023/04/19 12:18:42;;;;;;;5.15;1.38;;;13.20;1.00;;;;;;5047578;28;20076;-60
2023/04/19 12:21:08;;;;;;;2.90;1.42;;;13.20;1.00;;;;;;5030269;28;20123;-61
2023/04/19 12:23:34;;;;;;;2.53;1.08;;;13.10;1.00;;;;;;5040304;28;20041;-60
2023/04/19 12:26:04;;;;;;;4.85;1.15;;;13.20;1.00;;;;;;5030914;28;20482;-61
2023/04/19 12:28:30;;;;;;;3.80;1.42;;;13.30;1.00;;;;;;5040512;28;20045;-61
2023/04/19 12:30:56;;;;;;;4.20;1.73;;;13.40;1.00;;;;;;5047401;28;20383;-60
2023/04/19 12:33:21;;;;;;;4.55;1.33;;;13.40;1.00;;;;;;5039430;28;20039;-61
2023/04/19 12:35:47;;;;;;;1.80;1.33;;;13.50;1.00;;;;;;5032916;28;20515;-62
2023/04/19 12:38:13;;;;;;;2.67;1.33;;;13.50;1.00;;;;;;5027768;28;20173;-61
2023/04/19 12:40:39;;;;;;;4.47;1.10;;;13.60;1.00;;;;;;5027678;28;20483;-62
2023/04/19 12:43:07;;;;;;;2.55;1.50;;;13.60;1.00;;;;;;5046817;28;20049;-61
2023/04/19 12:45:32;;;;;;;2.30;1.10;;;13.60;1.00;;;;;;5040699;28;20080;-61
2023/04/19 12:47:58;;;;;;;2.80;1.45;;;13.70;1.00;;;;;;5047112;28;20080;-61
2023/04/19 12:50:25;;;;;;;6.82;1.38;;;13.70;1.00;;;;;;5008658;28;20562;-61
2023/04/19 12:52:52;;;;;;;3.50;1.77;;;13.50;1.00;;;;;;5025609;28;20455;-61
2023/04/19 12:55:18;;;;;;;5.88;1.40;;;13.40;1.00;;;;;;5042203;28;20116;-64
2023/04/19 12:57:44;;;;;;;4.45;1.73;;;13.40;1.00;;;;;;5026909;28;20052;-65